Etusivu
METAR-TAF:

METAR-TAF

Lentoasemat :

Ivalon lentoasema

Ivalo, Suomi

Leveyspiiri: 68-37N, Pituuspiiri: 027-25E, korkeus merenpinnasta: 147 m

Tämänhetkinen sää

Tämä raportti tehtiin 26 minuuttia sitten, kello 16.20 UTC
Tuuli 3 kn etelästä, vaihdellen kaakon ja etelän/lounaan välillä
Lämpötila 13°C
Kosteus 58%
Ilmanpaine 1025 hPa
Näkyvyys 10 km tai enemmän
Pilvistä 4700 ft:n korkeudessa

METAR: EFIV 111620Z AUTO 17003KT 140V200 9999 OVC047 13/05 Q1025

Aika: 19:46 (16:46 UTC)

Sääennuste

Tämä raportti tehtiin 5 tuntia ja 17 minuuttia sitten, kello 11.29 UTC
Ennuste voimassa 11. päivästä klo 12 UTC - 11. päivään klo 16 UTC
Tuuli 6 kn pohjoisesta/koillisesta
Näkyvyys 10 km tai enemmän
Hajonneita pilviä 3500 ft:n korkeudessa

TAF: EFIV 111129Z 1112/1116 02006KT 9999 BKN035

Säähavainnot ja -ennusteet yli 4000 lentoasemalta (METAR- ja TAF-raportit).

Käytössä olevat sääasemat on merkitty karttaan keltaisilla ja punaisilla pisteillä.

Aseta hiiri pisteen päälle nähdäksesi sääaseman nimen.

Klikkaa sitten nähdäksesi säähavainnot ja -ennusteet.

Kartan vaihtaminen: klikkaa mustalla rastilla varustettuja vihreitä pisteitä, niin voit zoomata sisään; viivalla varustettua vihreää pistettä, niin voit zoomata ulos tai vihreitä nuolia, niin pääset viereisille kartoille.


METAR-TAF: